Time;durP1;ratioP1;P1;durP2;ratioP2;P2;SDS_P1;SDS_P2;PMS_P1;PMS_P2;Temp;Humidity;BMP_temperature;BMP_pressure;BME280_temperature;BME280_humidity;BME280_pressure;Samples;Min_cycle;Max_cycle;Signal;HPM_P1;HPM_P2
2023/05/03 00:00:28;;;;;;;2.87;1.50;;;;;;;;;;5140085;27;20489;-70
2023/05/03 00:02:57;;;;;;;10.63;3.00;;;;;;;;;;5140523;27;20450;-69
2023/05/03 00:05:27;;;;;;;2.93;1.73;;;;;;;;;;5140358;27;20474;-69
2023/05/03 00:07:56;;;;;;;4.50;1.70;;;;;;;;;;5139345;27;20541;-69
2023/05/03 00:10:24;;;;;;;2.33;1.23;;;;;;;;;;5140491;27;20460;-70
2023/05/03 00:12:53;;;;;;;6.20;1.63;;;;;;;;;;5139919;27;20490;-69
2023/05/03 00:15:21;;;;;;;4.20;1.60;;;;;;;;;;5139040;27;20442;-68
2023/05/03 00:17:50;;;;;;;7.67;2.47;;;;;;;;;;5140623;27;20458;-69
2023/05/03 00:20:19;;;;;;;3.17;1.80;;;;;;;;;;5138563;27;20486;-68
2023/05/03 00:22:49;;;;;;;5.93;2.23;;;;;;;;;;5143238;28;20490;-69
2023/05/03 00:25:17;;;;;;;4.27;1.73;;;;;;;;;;5140563;28;20469;-70
2023/05/03 00:27:46;;;;;;;7.50;1.47;;;;;;;;;;5140317;28;20450;-69
2023/05/03 00:30:15;;;;;;;4.70;2.30;;;;;;;;;;5141668;28;20438;-69
2023/05/03 00:32:45;;;;;;;6.43;2.40;;;;;;;;;;5141061;28;20454;-69
2023/05/03 00:35:13;;;;;;;4.40;1.67;;;;;;;;;;5141796;28;20895;-70
2023/05/03 00:37:41;;;;;;;5.10;2.00;;;;;;;;;;5142445;28;20488;-69
2023/05/03 00:40:17;;;;;;;5.07;1.63;;;;;;;;;;5141337;28;20550;-67
2023/05/03 00:42:46;;;;;;;7.67;1.53;;;;;;;;;;5143167;28;20454;-69
2023/05/03 00:45:14;;;;;;;4.00;2.23;;;;;;;;;;5142261;28;20449;-69
2023/05/03 00:47:43;;;;;;;5.80;2.10;;;;;;;;;;5141810;28;20559;-69
2023/05/03 00:50:15;;;;;;;2.97;1.67;;;;;;;;;;5143060;28;20454;-68
2023/05/03 00:52:44;;;;;;;4.33;1.90;;;;;;;;;;5142400;28;20820;-68
2023/05/03 00:55:18;;;;;;;7.30;2.40;;;;;;;;;;5142900;28;20450;-68
2023/05/03 00:57:57;;;;;;;6.30;2.40;;;;;;;;;;5143290;28;20549;-69
2023/05/03 01:00:32;;;;;;;3.93;2.30;;;;;;;;;;5142339;28;20482;-68
2023/05/03 01:03:01;;;;;;;4.97;2.00;;;;;;;;;;5143439;28;20453;-69
2023/05/03 01:05:33;;;;;;;10.20;3.80;;;;;;;;;;5141521;28;20525;-69
2023/05/03 01:08:08;;;;;;;4.13;2.03;;;;;;;;;;5143772;28;20461;-70
2023/05/03 01:10:42;;;;;;;3.27;1.87;;;;;;;;;;5141533;28;20477;-69
2023/05/03 01:13:17;;;;;;;4.37;2.27;;;;;;;;;;5141574;28;20450;-68
2023/05/03 01:15:53;;;;;;;6.37;2.20;;;;;;;;;;5134195;28;20482;-69
2023/05/03 01:18:24;;;;;;;2.87;1.87;;;;;;;;;;5144138;27;20884;-68
2023/05/03 01:20:54;;;;;;;6.30;2.37;;;;;;;;;;5144762;27;20569;-69
2023/05/03 01:23:31;;;;;;;5.20;2.17;;;;;;;;;;5146589;27;20929;-70
2023/05/03 01:26:01;;;;;;;6.53;2.20;;;;;;;;;;5146120;27;20453;-70
2023/05/03 01:28:30;;;;;;;3.70;2.10;;;;;;;;;;5143880;27;20475;-69
2023/05/03 01:31:04;;;;;;;5.00;2.13;;;;;;;;;;5143675;27;20442;-69
2023/05/03 01:33:38;;;;;;;3.47;1.90;;;;;;;;;;5143770;27;20592;-68
2023/05/03 01:36:13;;;;;;;4.67;2.10;;;;;;;;;;5143054;27;20450;-69
2023/05/03 01:38:42;;;;;;;7.10;3.17;;;;;;;;;;5143644;27;20446;-68
2023/05/03 01:41:13;;;;;;;3.33;1.87;;;;;;;;;;5143658;27;20889;-69
2023/05/03 01:43:42;;;;;;;4.50;2.10;;;;;;;;;;5143665;27;20461;-67
2023/05/03 01:46:11;;;;;;;5.13;2.30;;;;;;;;;;5143803;27;20864;-68
2023/05/03 01:48:40;;;;;;;3.63;1.83;;;;;;;;;;5144523;27;20450;-70
2023/05/03 01:51:08;;;;;;;3.30;1.93;;;;;;;;;;5144660;27;20454;-69
2023/05/03 01:53:37;;;;;;;3.97;2.10;;;;;;;;;;5146991;27;20523;-69
2023/05/03 01:56:07;;;;;;;7.20;2.23;;;;;;;;;;5146158;27;20453;-69
2023/05/03 01:58:37;;;;;;;7.97;2.20;;;;;;;;;;5145663;27;20458;-69
2023/05/03 02:01:06;;;;;;;4.07;1.77;;;;;;;;;;5145135;27;20478;-69
2023/05/03 02:03:35;;;;;;;6.73;2.43;;;;;;;;;;5146565;27;20451;-69
2023/05/03 02:06:03;;;;;;;4.90;2.03;;;;;;;;;;5145338;27;20462;-69
2023/05/03 02:08:31;;;;;;;4.43;2.10;;;;;;;;;;5145080;27;20459;-69
2023/05/03 02:11:00;;;;;;;4.77;2.30;;;;;;;;;;5144434;27;20481;-70
2023/05/03 02:13:28;;;;;;;4.70;1.60;;;;;;;;;;5144272;27;20442;-68
2023/05/03 02:16:00;;;;;;;8.40;2.40;;;;;;;;;;5143952;27;20444;-68
2023/05/03 02:18:30;;;;;;;5.80;2.00;;;;;;;;;;5143187;27;20450;-68
2023/05/03 02:20:59;;;;;;;8.73;2.83;;;;;;;;;;5141840;27;20483;-68
2023/05/03 02:23:28;;;;;;;4.33;1.93;;;;;;;;;;5143398;27;20434;-69
2023/05/03 02:25:56;;;;;;;3.80;2.33;;;;;;;;;;5143028;27;20529;-69
2023/05/03 02:28:25;;;;;;;4.30;2.60;;;;;;;;;;5141851;27;20458;-69
2023/05/03 02:30:53;;;;;;;4.93;2.30;;;;;;;;;;5142120;27;20446;-69
2023/05/03 02:33:24;;;;;;;5.00;2.30;;;;;;;;;;5143175;27;20454;-68
2023/05/03 02:35:52;;;;;;;4.60;2.37;;;;;;;;;;5141871;27;20788;-70
2023/05/03 02:38:20;;;;;;;6.00;2.00;;;;;;;;;;5142410;27;20734;-69
2023/05/03 02:40:49;;;;;;;3.20;1.93;;;;;;;;;;5134741;27;20503;-69
2023/05/03 02:43:18;;;;;;;8.77;2.37;;;;;;;;;;5122497;28;20455;-68
2023/05/03 02:45:46;;;;;;;5.03;2.10;;;;;;;;;;5120834;28;20461;-69
2023/05/03 02:48:18;;;;;;;5.27;2.20;;;;;;;;;;5120746;28;20451;-70
2023/05/03 02:50:48;;;;;;;7.83;2.00;;;;;;;;;;5121829;28;20533;-69
2023/05/03 02:53:24;;;;;;;4.43;2.53;;;;;;;;;;5121861;28;20927;-70
2023/05/03 02:55:53;;;;;;;9.07;2.67;;;;;;;;;;5121138;28;20865;-69
2023/05/03 02:58:22;;;;;;;3.17;1.97;;;;;;;;;;5121017;28;20455;-69
2023/05/03 03:00:52;;;;;;;4.03;2.03;;;;;;;;;;5120438;28;20552;-68
2023/05/03 03:03:23;;;;;;;4.00;2.73;;;;;;;;;;5121102;28;20439;-68
2023/05/03 03:05:56;;;;;;;6.30;2.30;;;;;;;;;;5121401;28;20448;-68
2023/05/03 03:08:35;;;;;;;7.00;2.50;;;;;;;;;;5120793;28;20455;-70
2023/05/03 03:11:08;;;;;;;9.43;2.70;;;;;;;;;;5109818;28;20534;-69
2023/05/03 03:13:40;;;;;;;4.00;2.07;;;;;;;;;;5120782;28;20542;-68
2023/05/03 03:16:08;;;;;;;6.27;2.67;;;;;;;;;;5119232;28;20451;-69
2023/05/03 03:18:44;;;;;;;10.80;2.67;;;;;;;;;;5119129;28;20455;-69
2023/05/03 03:21:24;;;;;;;4.70;2.33;;;;;;;;;;5119167;28;20882;-69
2023/05/03 03:23:52;;;;;;;6.60;2.37;;;;;;;;;;5118356;28;20481;-69
2023/05/03 03:26:21;;;;;;;3.60;2.60;;;;;;;;;;5118798;28;20435;-69
2023/05/03 03:28:50;;;;;;;5.20;2.83;;;;;;;;;;5117270;28;21012;-70
2023/05/03 03:31:21;;;;;;;7.40;2.40;;;;;;;;;;5117958;28;20575;-69
2023/05/03 03:33:49;;;;;;;6.93;2.37;;;;;;;;;;5118141;28;20469;-69
2023/05/03 03:36:17;;;;;;;4.20;2.37;;;;;;;;;;5117965;28;20473;-69
2023/05/03 03:38:47;;;;;;;4.30;2.10;;;;;;;;;;5117677;28;20459;-70
2023/05/03 03:41:16;;;;;;;5.37;2.23;;;;;;;;;;5106124;28;20519;-69
2023/05/03 03:43:44;;;;;;;6.60;2.23;;;;;;;;;;5099847;28;20483;-69
2023/05/03 03:46:19;;;;;;;3.47;2.20;;;;;;;;;;5100299;28;20448;-69
2023/05/03 03:48:48;;;;;;;4.20;2.53;;;;;;;;;;5100407;28;20451;-69
2023/05/03 03:51:17;;;;;;;5.30;2.13;;;;;;;;;;5098741;28;20448;-70
2023/05/03 03:53:49;;;;;;;5.33;1.97;;;;;;;;;;5097661;28;20460;-69
2023/05/03 03:56:17;;;;;;;6.50;2.47;;;;;;;;;;5096980;28;20543;-69
2023/05/03 03:58:45;;;;;;;5.00;2.40;;;;;;;;;;5098144;28;20456;-69
2023/05/03 04:01:14;;;;;;;7.93;2.13;;;;;;;;;;5097621;28;20587;-70
2023/05/03 04:03:46;;;;;;;5.90;2.63;;;;;;;;;;5099208;28;20464;-68
2023/05/03 04:06:21;;;;;;;7.20;2.60;;;;;;;;;;5119851;27;20450;-69
2023/05/03 04:08:52;;;;;;;5.67;2.30;;;;;;;;;;5139618;27;20453;-68
2023/05/03 04:11:23;;;;;;;4.13;2.43;;;;;;;;;;5139241;27;20438;-68
2023/05/03 04:13:51;;;;;;;5.73;2.30;;;;;;;;;;5138042;27;20565;-69
2023/05/03 04:16:20;;;;;;;6.30;2.50;;;;;;;;;;5138031;27;20508;-69
2023/05/03 04:18:52;;;;;;;4.07;2.60;;;;;;;;;;5127044;27;20471;-71
2023/05/03 04:21:20;;;;;;;3.60;2.07;;;;;;;;;;5116681;28;20558;-70
2023/05/03 04:23:52;;;;;;;4.47;2.10;;;;;;;;;;5118171;28;20463;-69
2023/05/03 04:26:23;;;;;;;4.77;2.30;;;;;;;;;;5118152;28;20866;-70
2023/05/03 04:28:52;;;;;;;9.43;2.80;;;;;;;;;;5136866;28;20461;-69
2023/05/03 04:31:20;;;;;;;7.90;3.17;;;;;;;;;;5136764;28;20722;-69
2023/05/03 04:33:49;;;;;;;5.17;2.30;;;;;;;;;;5138283;28;20456;-69
2023/05/03 04:36:17;;;;;;;3.90;2.10;;;;;;;;;;5134921;28;20447;-70
2023/05/03 04:38:53;;;;;;;4.00;2.53;;;;;;;;;;5137770;28;20458;-69
2023/05/03 04:41:24;;;;;;;7.33;2.53;;;;;;;;;;5124912;28;20546;-69
2023/05/03 04:43:56;;;;;;;59.70;8.13;;;;;;;;;;5119127;28;20484;-69
2023/05/03 04:46:33;;;;;;;4.03;2.73;;;;;;;;;;5117889;28;20446;-69
2023/05/03 04:49:03;;;;;;;6.03;2.87;;;;;;;;;;5123546;28;20486;-69
2023/05/03 04:51:33;;;;;;;7.97;3.30;;;;;;;;;;5118247;28;20784;-67
2023/05/03 04:54:07;;;;;;;4.43;2.37;;;;;;;;;;5124206;27;20461;-69
2023/05/03 04:56:35;;;;;;;9.00;3.93;;;;;;;;;;5142419;27;20485;-68
2023/05/03 04:59:18;;;;;;;5.60;2.70;;;;;;;;;;5141561;27;20454;-68
2023/05/03 05:01:47;;;;;;;7.67;3.67;;;;;;;;;;5142203;27;20513;-69
2023/05/03 05:04:16;;;;;;;11.70;3.23;;;;;;;;;;5142884;27;20454;-68
2023/05/03 05:06:44;;;;;;;11.73;7.77;;;;;;;;;;5134029;27;20508;-69
2023/05/03 05:09:30;;;;;;;11.50;5.80;;;;;;;;;;5120603;27;20466;-70
2023/05/03 05:12:23;;;;;;;10.13;5.20;;;;;;;;;;5138983;27;20441;-70
2023/05/03 05:14:51;;;;;;;9.00;4.90;;;;;;;;;;5110560;27;20487;-69
2023/05/03 05:17:20;;;;;;;10.37;5.20;;;;;;;;;;5116436;28;20451;-70
2023/05/03 05:19:48;;;;;;;10.30;5.00;;;;;;;;;;5115344;27;20545;-69
2023/05/03 05:22:16;;;;;;;6.10;4.40;;;;;;;;;;5097653;28;20509;-70
2023/05/03 05:24:48;;;;;;;5.13;3.40;;;;;;;;;;5096453;28;20561;-69
2023/05/03 05:27:17;;;;;;;5.07;3.50;;;;;;;;;;5094381;28;20440;-69
2023/05/03 05:29:45;;;;;;;7.10;2.90;;;;;;;;;;5093703;28;20468;-68
2023/05/03 05:32:15;;;;;;;4.67;2.97;;;;;;;;;;5092519;28;20448;-70
2023/05/03 05:34:43;;;;;;;13.23;5.43;;;;;;;;;;5093536;28;20459;-69
2023/05/03 05:37:12;;;;;;;5.93;3.07;;;;;;;;;;5093433;28;20784;-70
2023/05/03 05:39:40;;;;;;;6.40;3.37;;;;;;;;;;5093556;28;20436;-69
2023/05/03 05:42:15;;;;;;;6.90;3.43;;;;;;;;;;5111342;28;20479;-68
2023/05/03 05:44:46;;;;;;;7.43;3.03;;;;;;;;;;5112152;28;20777;-68
2023/05/03 05:47:20;;;;;;;9.23;3.07;;;;;;;;;;5108337;28;20842;-68
2023/05/03 05:49:49;;;;;;;7.03;3.90;;;;;;;;;;5111373;28;20542;-71
2023/05/03 05:52:17;;;;;;;9.10;4.17;;;;;;;;;;5112201;28;20447;-68
2023/05/03 05:54:57;;;;;;;7.03;2.97;;;;;;;;;;5113303;28;20447;-69
2023/05/03 05:57:28;;;;;;;5.47;3.50;;;;;;;;;;5118962;28;20454;-70
2023/05/03 05:59:59;;;;;;;7.87;3.93;;;;;;;;;;5112276;28;20490;-70
2023/05/03 06:02:28;;;;;;;6.00;3.07;;;;;;;;;;5106192;28;20569;-69
2023/05/03 06:04:58;;;;;;;4.47;3.20;;;;;;;;;;5112461;28;20449;-70
2023/05/03 06:07:29;;;;;;;6.33;4.43;;;;;;;;;;5102420;28;20459;-69
2023/05/03 06:10:00;;;;;;;4.97;3.17;;;;;;;;;;5120370;27;20482;-69
2023/05/03 06:12:31;;;;;;;5.87;3.20;;;;;;;;;;5136314;27;20529;-69
2023/05/03 06:14:59;;;;;;;7.47;3.30;;;;;;;;;;5125458;27;20463;-68
2023/05/03 06:17:30;;;;;;;5.37;2.90;;;;;;;;;;5090372;28;20459;-68
2023/05/03 06:20:11;;;;;;;17.63;4.53;;;;;;;;;;5091575;28;20458;-70
2023/05/03 06:22:50;;;;;;;36.40;7.50;;;;;;;;;;5109472;28;20493;-68
2023/05/03 06:25:30;;;;;;;11.73;3.57;;;;;;;;;;5113156;28;20507;-69
2023/05/03 06:28:01;;;;;;;8.63;3.53;;;;;;;;;;5108640;28;20455;-70
2023/05/03 06:30:30;;;;;;;5.53;2.77;;;;;;;;;;5107559;28;20695;-68
2023/05/03 06:32:59;;;;;;;8.93;3.10;;;;;;;;;;5107736;28;20500;-68
2023/05/03 06:35:28;;;;;;;7.37;2.60;;;;;;;;;;5109048;28;20869;-68
2023/05/03 06:38:00;;;;;;;29.97;3.20;;;;;;;;;;5109394;28;20462;-69
2023/05/03 06:40:36;;;;;;;16.07;5.60;;;;;;;;;;5108130;28;20448;-70
2023/05/03 06:43:07;;;;;;;15.50;4.60;;;;;;;;;;5111721;28;20478;-69
2023/05/03 06:45:36;;;;;;;11.30;4.33;;;;;;;;;;5112168;28;20451;-69
2023/05/03 06:48:14;;;;;;;5.70;3.20;;;;;;;;;;5110931;28;20466;-69
2023/05/03 06:50:44;;;;;;;11.50;6.00;;;;;;;;;;5098407;28;20456;-69
2023/05/03 06:53:13;;;;;;;12.67;4.70;;;;;;;;;;5094435;28;20520;-69
2023/05/03 06:55:45;;;;;;;4.57;2.20;;;;;;;;;;5094575;28;20452;-70
2023/05/03 06:58:18;;;;;;;6.50;2.37;;;;;;;;;;5092908;28;20460;-69
2023/05/03 07:00:49;;;;;;;7.30;2.40;;;;;;;;;;5084960;28;20517;-69
2023/05/03 07:03:18;;;;;;;6.70;1.93;;;;;;;;;;5101580;28;20548;-69
2023/05/03 07:05:52;;;;;;;4.17;1.60;;;;;;;;;;5105278;28;20455;-69
2023/05/03 07:08:21;;;;;;;5.70;1.90;;;;;;;;;;5113539;28;20501;-69
2023/05/03 07:10:51;;;;;;;6.60;1.97;;;;;;;;;;5099471;28;20452;-68
2023/05/03 07:13:36;;;;;;;13.80;3.60;;;;;;;;;;5094107;28;20452;-71
2023/05/03 07:16:06;;;;;;;5.10;2.37;;;;;;;;;;5106361;28;20487;-67
2023/05/03 07:18:35;;;;;;;5.83;1.93;;;;;;;;;;5116182;27;20958;-70
2023/05/03 07:21:14;;;;;;;5.03;2.97;;;;;;;;;;5131567;27;20462;-70
2023/05/03 07:23:46;;;;;;;6.00;1.87;;;;;;;;;;5113304;28;20482;-68
2023/05/03 07:26:17;;;;;;;4.63;2.37;;;;;;;;;;5093945;28;20452;-70
2023/05/03 07:28:48;;;;;;;12.47;2.17;;;;;;;;;;5099380;28;20474;-69
2023/05/03 07:31:17;;;;;;;8.50;1.70;;;;;;;;;;5092768;28;20740;-69
2023/05/03 07:34:12;;;;;;;4.97;1.20;;;;;;;;;;5091076;28;20996;-70
2023/05/03 07:36:44;;;;;;;3.53;1.33;;;;;;;;;;5100519;27;21114;-70
2023/05/03 07:39:25;;;;;;;5.40;1.87;;;;;;;;;;5113345;28;20456;-70
2023/05/03 07:41:55;;;;;;;6.03;2.03;;;;;;;;;;5115692;28;20551;-70
2023/05/03 07:44:34;;;;;;;4.43;1.03;;;;;;;;;;5113569;28;20466;-69
2023/05/03 07:55:23;;;;;;;2.43;1.17;;;;;;;;;;5115163;28;20448;-71
2023/05/03 07:57:58;;;;;;;3.37;1.20;;;;;;;;;;5112239;28;20924;-71
2023/05/03 08:04:06;;;;;;;2.80;1.00;;;;;;;;;;5093879;28;20886;-71
2023/05/03 08:06:37;;;;;;;6.73;1.50;;;;;;;;;;5112750;27;20452;-69
2023/05/03 08:09:10;;;;;;;2.43;1.10;;;;;;;;;;5112141;28;20451;-69
2023/05/03 08:11:58;;;;;;;3.20;1.10;;;;;;;;;;5102504;28;20446;-70
2023/05/03 08:14:26;;;;;;;2.50;1.30;;;;;;;;;;5095821;28;20490;-68
2023/05/03 08:16:57;;;;;;;4.70;1.00;;;;;;;;;;5113542;28;20451;-70
2023/05/03 08:19:49;;;;;;;4.77;1.83;;;;;;;;;;5122851;27;20486;-69
2023/05/03 08:22:41;;;;;;;4.67;1.20;;;;;;;;;;5086717;28;20484;-69
2023/05/03 08:25:17;;;;;;;2.53;1.30;;;;;;;;;;5100535;28;20910;-70
2023/05/03 08:30:57;;;;;;;4.00;1.60;;;;;;;;;;5091568;28;20436;-69
2023/05/03 08:33:35;;;;;;;3.40;1.30;;;;;;;;;;5098196;28;20454;-70
2023/05/03 08:36:23;;;;;;;3.80;1.23;;;;;;;;;;5108270;28;20899;-69
2023/05/03 08:38:56;;;;;;;2.90;1.17;;;;;;;;;;5113556;28;20462;-69
2023/05/03 08:41:52;;;;;;;6.57;1.63;;;;;;;;;;5100434;28;20734;-69
2023/05/03 08:44:31;;;;;;;4.33;1.50;;;;;;;;;;5090071;28;20460;-70
2023/05/03 08:47:03;;;;;;;2.77;1.10;;;;;;;;;;5090953;28;20483;-71
2023/05/03 08:49:34;;;;;;;4.00;1.30;;;;;;;;;;5091456;28;20464;-68
2023/05/03 08:52:04;;;;;;;4.67;1.30;;;;;;;;;;5108915;28;20473;-69
2023/05/03 08:54:36;;;;;;;4.20;1.50;;;;;;;;;;5091257;28;20478;-69
2023/05/03 08:57:16;;;;;;;5.50;1.37;;;;;;;;;;5092556;28;20444;-70
2023/05/03 08:59:48;;;;;;;4.33;1.53;;;;;;;;;;5090400;28;20452;-71
2023/05/03 09:02:25;;;;;;;69.77;7.20;;;;;;;;;;5101485;28;20539;-69
2023/05/03 09:04:56;;;;;;;5.40;1.73;;;;;;;;;;5116497;28;20446;-69
2023/05/03 09:07:29;;;;;;;4.43;1.20;;;;;;;;;;5132166;28;20454;-69
2023/05/03 09:10:00;;;;;;;4.43;2.17;;;;;;;;;;5132622;28;20454;-69
2023/05/03 09:12:39;;;;;;;3.93;1.33;;;;;;;;;;5117992;28;20499;-69
2023/05/03 09:15:22;;;;;;;3.70;1.70;;;;;;;;;;5133137;28;20450;-69
2023/05/03 09:18:08;;;;;;;5.23;1.50;;;;;;;;;;5134619;28;20442;-68
2023/05/03 09:20:40;;;;;;;10.00;1.60;;;;;;;;;;5134668;28;20454;-70
2023/05/03 09:23:09;;;;;;;3.07;1.50;;;;;;;;;;5136881;28;20531;-68
2023/05/03 09:25:54;;;;;;;7.87;1.90;;;;;;;;;;5101940;28;20464;-69
2023/05/03 09:28:27;;;;;;;4.30;1.50;;;;;;;;;;5103747;28;20573;-69
2023/05/03 09:31:08;;;;;;;5.60;1.60;;;;;;;;;;5114033;28;20570;-68
2023/05/03 09:34:23;;;;;;;;;;;;;;;;;;;;;
2023/05/03 09:36:56;;;;;;;4.23;1.53;;;;;;;;;;5095939;28;20425;-69
2023/05/03 09:39:25;;;;;;;4.20;2.03;;;;;;;;;;5094454;28;20436;-69
2023/05/03 09:41:59;;;;;;;6.30;2.47;;;;;;;;;;5099575;28;20521;-70
2023/05/03 09:44:42;;;;;;;3.83;2.00;;;;;;;;;;5117772;28;20479;-69
2023/05/03 09:47:11;;;;;;;2.93;1.47;;;;;;;;;;5098134;28;20458;-68
2023/05/03 09:49:41;;;;;;;3.97;1.97;;;;;;;;;;5113845;28;20472;-69
2023/05/03 09:52:23;;;;;;;3.40;2.40;;;;;;;;;;5089627;28;20449;-69
2023/05/03 09:54:55;;;;;;;5.60;2.90;;;;;;;;;;5115792;27;20487;-69
2023/05/03 10:04:14;;;;;;;3.03;2.00;;;;;;;;;;5126535;27;20327;-69
2023/05/03 10:06:55;;;;;;;3.23;2.23;;;;;;;;;;5073605;28;20472;-68
2023/05/03 10:09:26;;;;;;;2.73;1.50;;;;;;;;;;5074848;28;20554;-69
2023/05/03 10:12:00;;;;;;;4.30;1.63;;;;;;;;;;5047896;28;20465;-69
2023/05/03 10:14:30;;;;;;;5.50;2.20;;;;;;;;;;5048793;28;20433;-69
2023/05/03 10:17:09;;;;;;;4.63;1.40;;;;;;;;;;5061151;28;20555;-70
2023/05/03 10:20:29;;;;;;;7.27;3.00;;;;;;;;;;5054358;28;20775;-71
2023/05/03 10:23:12;;;;;;;4.83;1.30;;;;;;;;;;5071823;28;20472;-69
2023/05/03 10:26:03;;;;;;;3.70;2.10;;;;;;;;;;5064393;28;20501;-69
2023/05/03 10:28:39;;;;;;;5.00;1.73;;;;;;;;;;5063518;28;21041;-69
2023/05/03 10:31:28;;;;;;;4.67;1.77;;;;;;;;;;5067511;28;20461;-69
2023/05/03 10:33:57;;;;;;;7.63;1.20;;;;;;;;;;5067500;28;20783;-69
2023/05/03 10:39:41;;;;;;;6.00;1.70;;;;;;;;;;5054770;28;20451;-69
2023/05/03 10:42:32;;;;;;;3.83;1.20;;;;;;;;;;5070925;28;20565;-69
2023/05/03 10:50:52;;;;;;;3.60;1.50;;;;;;;;;;5049151;28;20488;-70
2023/05/03 10:53:59;;;;;;;6.57;1.40;;;;;;;;;;5054949;28;20516;-70
2023/05/03 10:59:48;;;;;;;9.93;3.43;;;;;;;;;;5051442;28;20420;-70
2023/05/03 11:02:23;;;;;;;7.83;2.30;;;;;;;;;;5061890;28;20478;-68
2023/05/03 11:04:57;;;;;;;7.13;2.00;;;;;;;;;;5061200;28;20498;-69
2023/05/03 11:07:27;;;;;;;3.50;1.50;;;;;;;;;;5062970;28;20476;-68
2023/05/03 11:10:00;;;;;;;6.20;1.57;;;;;;;;;;5051751;28;20461;-68
2023/05/03 11:12:29;;;;;;;3.50;1.60;;;;;;;;;;5051212;28;20461;-68
2023/05/03 11:15:03;;;;;;;5.03;1.90;;;;;;;;;;5035378;28;20454;-70
2023/05/03 11:17:32;;;;;;;3.60;1.57;;;;;;;;;;5035886;28;20479;-70
2023/05/03 11:23:13;;;;;;;9.87;1.93;;;;;;;;;;5054685;28;20477;-70
2023/05/03 11:25:42;;;;;;;5.23;2.30;;;;;;;;;;5055245;28;20462;-70
2023/05/03 11:28:14;;;;;;;5.50;1.70;;;;;;;;;;5051950;28;20601;-68
2023/05/03 11:30:45;;;;;;;4.50;1.90;;;;;;;;;;5056458;28;20450;-69
2023/05/03 11:33:17;;;;;;;3.83;2.00;;;;;;;;;;5045639;28;20450;-69
2023/05/03 11:35:56;;;;;;;6.63;1.73;;;;;;;;;;5048136;28;20482;-69
2023/05/03 11:38:26;;;;;;;6.33;2.10;;;;;;;;;;5050804;28;20531;-70
2023/05/03 11:41:02;;;;;;;7.57;5.17;;;;;;;;;;5045686;28;20511;-69
2023/05/03 11:43:34;;;;;;;7.60;1.80;;;;;;;;;;5039822;28;20485;-69
2023/05/03 11:46:06;;;;;;;5.53;1.80;;;;;;;;;;5043367;28;20505;-69
2023/05/03 11:48:37;;;;;;;4.53;1.93;;;;;;;;;;5046809;28;20451;-70
2023/05/03 11:51:15;;;;;;;3.97;1.70;;;;;;;;;;5037902;28;20525;-70
2023/05/03 11:53:56;;;;;;;4.43;1.70;;;;;;;;;;5046762;28;20469;-72
2023/05/03 11:56:30;;;;;;;3.73;1.70;;;;;;;;;;5050256;28;20469;-71
2023/05/03 11:59:05;;;;;;;6.10;1.80;;;;;;;;;;5052836;28;20485;-72
2023/05/03 12:01:54;;;;;;;4.10;2.10;;;;;;;;;;5050119;28;20471;-69
2023/05/03 12:04:23;;;;;;;4.67;1.90;;;;;;;;;;5052051;28;20517;-70
2023/05/03 12:07:02;;;;;;;5.93;1.63;;;;;;;;;;5053338;28;20465;-70
2023/05/03 12:09:31;;;;;;;4.40;2.00;;;;;;;;;;5044270;28;20450;-69
2023/05/03 12:12:45;;;;;;;5.07;2.40;;;;;;;;;;5049626;28;20452;-71
2023/05/03 12:18:30;;;;;;;7.20;3.33;;;;;;;;;;5029158;28;20474;-71
2023/05/03 12:21:00;;;;;;;5.53;1.87;;;;;;;;;;5041935;28;20478;-69
2023/05/03 12:23:34;;;;;;;6.07;2.50;;;;;;;;;;5035635;28;20545;-69
2023/05/03 12:26:21;;;;;;;8.20;1.83;;;;;;;;;;5038835;28;20480;-68
2023/05/03 12:32:04;;;;;;;6.60;2.10;;;;;;;;;;5039985;28;20476;-71
2023/05/03 12:34:39;;;;;;;6.23;1.67;;;;;;;;;;5045637;28;20450;-68
2023/05/03 12:37:25;;;;;;;7.33;2.00;;;;;;;;;;5030651;28;20454;-70
2023/05/03 12:39:55;;;;;;;4.23;1.83;;;;;;;;;;5047061;28;20457;-71
2023/05/03 12:42:24;;;;;;;5.90;2.27;;;;;;;;;;5038198;28;20565;-68
2023/05/03 12:44:53;;;;;;;6.23;2.10;;;;;;;;;;5050412;28;20563;-70
2023/05/03 12:47:25;;;;;;;3.77;2.20;;;;;;;;;;5048654;28;20469;-71
2023/05/03 12:50:02;;;;;;;6.93;2.10;;;;;;;;;;5042776;28;20458;-70
2023/05/03 12:52:42;;;;;;;11.37;3.00;;;;;;;;;;5043896;28;20458;-72
2023/05/03 12:55:11;;;;;;;4.47;1.87;;;;;;;;;;5032741;28;20462;-70
2023/05/03 13:00:39;;;;;;;5.77;2.03;;;;;;;;;;5026827;28;20513;-70
2023/05/03 13:03:16;;;;;;;8.43;2.23;;;;;;;;;;5036778;28;21020;-71
2023/05/03 13:05:54;;;;;;;8.50;2.40;;;;;;;;;;5036572;28;20462;-70
2023/05/03 13:08:27;;;;;;;5.17;3.70;;;;;;;;;;5037230;28;20467;-70
2023/05/03 13:10:55;;;;;;;7.57;2.20;;;;;;;;;;5048046;28;20916;-71
2023/05/03 13:13:30;;;;;;;4.30;2.10;;;;;;;;;;5047271;28;20446;-70
2023/05/03 13:16:02;;;;;;;4.20;2.23;;;;;;;;;;5050623;28;21041;-70
2023/05/03 13:18:32;;;;;;;4.60;1.77;;;;;;;;;;5048886;28;20572;-70
2023/05/03 13:21:03;;;;;;;5.60;1.87;;;;;;;;;;5045829;28;20487;-71
2023/05/03 13:23:33;;;;;;;6.47;1.97;;;;;;;;;;5038389;28;20937;-71
2023/05/03 13:26:01;;;;;;;6.40;2.37;;;;;;;;;;5034705;28;20569;-69
2023/05/03 13:28:35;;;;;;;4.20;1.80;;;;;;;;;;5029107;28;20465;-70
2023/05/03 13:31:13;;;;;;;5.50;2.20;;;;;;;;;;5031642;28;20526;-70
2023/05/03 13:33:43;;;;;;;5.40;2.10;;;;;;;;;;5035095;28;20458;-71
2023/05/03 13:36:21;;;;;;;5.17;2.20;;;;;;;;;;5030105;28;20455;-68
2023/05/03 13:38:55;;;;;;;4.17;2.17;;;;;;;;;;5036946;28;20450;-70
2023/05/03 13:41:24;;;;;;;4.27;2.23;;;;;;;;;;5031424;28;20878;-70
2023/05/03 13:43:55;;;;;;;3.93;2.07;;;;;;;;;;5032743;28;20493;-70
2023/05/03 13:46:26;;;;;;;8.27;2.80;;;;;;;;;;5029410;28;20513;-69
2023/05/03 13:48:55;;;;;;;4.93;2.00;;;;;;;;;;5029798;28;20501;-69
2023/05/03 13:51:32;;;;;;;11.00;7.83;;;;;;;;;;5031494;28;20775;-70
2023/05/03 13:54:00;;;;;;;3.47;2.03;;;;;;;;;;5031432;28;20544;-70
2023/05/03 13:56:29;;;;;;;6.17;2.23;;;;;;;;;;5044964;28;20489;-70
2023/05/03 13:59:04;;;;;;;3.77;2.10;;;;;;;;;;5033858;28;20443;-70
2023/05/03 14:01:46;;;;;;;5.67;2.20;;;;;;;;;;5033055;28;20469;-69
2023/05/03 14:04:26;;;;;;;5.90;2.53;;;;;;;;;;5031626;28;20578;-69
2023/05/03 14:06:57;;;;;;;5.30;2.40;;;;;;;;;;5032638;28;20462;-69
2023/05/03 14:09:26;;;;;;;7.00;4.03;;;;;;;;;;5032071;28;20449;-69
2023/05/03 14:11:55;;;;;;;6.50;2.63;;;;;;;;;;5032403;28;20547;-70
2023/05/03 14:14:33;;;;;;;7.77;2.90;;;;;;;;;;5033024;28;20463;-69
2023/05/03 14:17:20;;;;;;;5.60;2.50;;;;;;;;;;5030831;28;20450;-69
2023/05/03 14:19:51;;;;;;;4.90;2.70;;;;;;;;;;5045900;28;20453;-68
2023/05/03 14:22:24;;;;;;;9.13;3.37;;;;;;;;;;5024950;28;20569;-71
2023/05/03 14:24:53;;;;;;;4.77;2.47;;;;;;;;;;5052451;28;20486;-69
2023/05/03 14:27:26;;;;;;;4.83;2.60;;;;;;;;;;5049188;28;21060;-69
2023/05/03 14:29:55;;;;;;;3.97;2.00;;;;;;;;;;5048289;28;20469;-70
2023/05/03 14:32:24;;;;;;;6.40;2.60;;;;;;;;;;5049339;28;20454;-70
2023/05/03 14:34:56;;;;;;;5.37;2.60;;;;;;;;;;5047195;28;20552;-70
2023/05/03 14:37:37;;;;;;;6.03;2.97;;;;;;;;;;5047210;28;20450;-70
2023/05/03 14:40:08;;;;;;;3.90;2.27;;;;;;;;;;5045998;28;20457;-70
2023/05/03 14:42:37;;;;;;;4.03;2.03;;;;;;;;;;5033904;28;20482;-71
2023/05/03 14:45:09;;;;;;;6.60;2.43;;;;;;;;;;5034712;28;21542;-70
2023/05/03 14:47:41;;;;;;;5.33;2.33;;;;;;;;;;5045335;28;21081;-71
2023/05/03 14:50:18;;;;;;;6.33;3.40;;;;;;;;;;5032936;28;20554;-71
2023/05/03 14:52:55;;;;;;;4.50;2.57;;;;;;;;;;5034809;28;21022;-71
2023/05/03 14:55:27;;;;;;;6.90;2.40;;;;;;;;;;5038802;28;20469;-70
2023/05/03 15:00:53;;;;;;;5.07;2.70;;;;;;;;;;5036879;28;20480;-71
2023/05/03 15:06:37;;;;;;;6.23;2.60;;;;;;;;;;5046792;28;20501;-72
2023/05/03 15:09:10;;;;;;;9.23;3.03;;;;;;;;;;5038135;28;20608;-70
2023/05/03 15:11:45;;;;;;;5.27;3.17;;;;;;;;;;5044462;28;20711;-72
2023/05/03 15:14:16;;;;;;;6.30;2.67;;;;;;;;;;5035860;28;20458;-69
2023/05/03 15:16:44;;;;;;;4.67;2.17;;;;;;;;;;5035645;28;20492;-70
2023/05/03 15:19:14;;;;;;;9.47;2.60;;;;;;;;;;5034097;28;20477;-70
2023/05/03 15:21:47;;;;;;;5.03;2.40;;;;;;;;;;5041494;28;20470;-70
2023/05/03 15:24:24;;;;;;;5.73;1.90;;;;;;;;;;5037202;28;20556;-70
2023/05/03 15:27:30;;;;;;;5.77;2.10;;;;;;;;;;5042479;28;20567;-71
2023/05/03 15:30:20;;;;;;;6.80;2.50;;;;;;;;;;5036945;28;20464;-70
2023/05/03 15:32:50;;;;;;;7.40;2.40;;;;;;;;;;5025000;28;20569;-70
2023/05/03 15:35:22;;;;;;;4.13;1.63;;;;;;;;;;5043243;28;20462;-70
2023/05/03 15:38:04;;;;;;;3.50;2.00;;;;;;;;;;5050395;28;20466;-70
2023/05/03 15:41:10;;;;;;;8.93;3.20;;;;;;;;;;5037503;28;20519;-70
2023/05/03 15:43:40;;;;;;;6.00;2.53;;;;;;;;;;5035696;28;20634;-70
2023/05/03 15:46:19;;;;;;;5.27;2.40;;;;;;;;;;5043453;28;20462;-70
2023/05/03 15:48:51;;;;;;;4.40;2.00;;;;;;;;;;5036651;28;20520;-69
2023/05/03 15:51:22;;;;;;;5.83;2.90;;;;;;;;;;5040241;28;20549;-69
2023/05/03 15:54:08;;;;;;;5.70;2.27;;;;;;;;;;5035064;28;20457;-69
2023/05/03 15:56:38;;;;;;;8.50;2.57;;;;;;;;;;5033826;28;20769;-70
2023/05/03 15:59:13;;;;;;;9.30;2.50;;;;;;;;;;5015817;28;20439;-70
2023/05/03 16:05:11;;;;;;;4.43;2.10;;;;;;;;;;5049326;28;20466;-71
2023/05/03 16:07:48;;;;;;;6.17;2.30;;;;;;;;;;5038444;28;20992;-70
2023/05/03 16:10:20;;;;;;;4.63;2.50;;;;;;;;;;5031230;28;20470;-70
2023/05/03 16:12:50;;;;;;;7.73;3.03;;;;;;;;;;5035504;28;20459;-69
2023/05/03 16:15:22;;;;;;;6.20;2.50;;;;;;;;;;5051416;28;20442;-69